CYQD

The Pas Airport

The Pas, Manitoba, Canada
TAF CYQD 241838Z 2419/2507 29008KT P6SM OVC020 TEMPO 2419/2423 P6SM -SHRA OVC025 FM242300 29008KT P6SM BKN025 TEMPO 2423/2507 OVC020 BECMG 2502/2504 21006KT RMK FCST BASED ON AUTO OBS. NXT FCST BY 250100Z
Issued Valid From Valid To
Sep-24 @ 18:38 UTC
(an hour ago)
Sep-24 @ 19:00 UTC
(46 minutes ago)
Sep-25 @ 07:00 UTC
(in 11 hours)
Sep-24 @ 19:00 to Sep-24 @ 23:00
TAF CYQD 241838Z 2419/2507 29008KT P6SM OVC020
Wind Visibility Clouds
290° at 8 knots Greater than 6 miles
  • Overcast at 2,000' AGL
Temporary Sep-24 @ 19:00 to Sep-24 @ 23:00
TEMPO 2419/2423 P6SM -SHRA OVC025
Visibility Clouds Conditions
Greater than 6 miles
  • Overcast at 2,500' AGL
  • Light Rain
From Sep-24 @ 23:00 to Sep-25 @ 02:00
FM242300 29008KT P6SM BKN025
Wind Visibility Clouds
290° at 8 knots Greater than 6 miles
  • Broken at 2,500' AGL
Temporary Sep-24 @ 23:00 to Sep-25 @ 07:00
TEMPO 2423/2507 OVC020
Clouds
  • Overcast at 2,000' AGL
Becoming Sep-25 @ 02:00 to Sep-25 @ 07:00
BECMG 2502/2504 21006KT RMK FCST BASED ON AUTO OBS. NXT FCST BY 250100Z
Wind Visibility Clouds
210° at 6 knots Greater than 6 miles
  • Broken at 2,500' AGL
TAF CYQD 241838Z 2419/2507 29008KT P6SM OVC020 TEMPO 2419/2423 P6SM -SHRA OVC025 FM242300 29008KT P6SM BKN025 TEMPO 2423/2507 OVC020 BECMG 2502/2504 21006KT RMK FCST BASED ON AUTO OBS. NXT FCST BY 250100Z
Issued Sep-24 @ 18:38 UTC
(an hour ago)
Valid From Sep-24 @ 19:00 UTC
(46 minutes ago)
Valid To Sep-25 @ 07:00 UTC
(in 11 hours)
Sep-24 @ 19:00 - Sep-24 @ 23:00
Wind Visibility
290° at 8 knots Greater than 6 miles
Clouds
  • Overcast at 2,000' AGL
Temporary Sep-24 @ 19:00 - Sep-24 @ 23:00
Clouds
  • Overcast at 2,500' AGL
Conditions
  • Light Rain
From Sep-24 @ 23:00 - Sep-25 @ 02:00
Wind Visibility
290° at 8 knots Greater than 6 miles
Clouds
  • Broken at 2,500' AGL
Temporary Sep-24 @ 23:00 - Sep-25 @ 07:00
Clouds
  • Overcast at 2,000' AGL
Becoming Sep-25 @ 02:00 - Sep-25 @ 07:00
Wind Visibility
210° at 6 knots Greater than 6 miles
Clouds
  • Broken at 2,500' AGL